NDU9442 KOMA-KGRI
Flight info
| Callsign | NDU9442 |
|---|---|
| Flight time | 0h 49m |
| Altitude | 5000 |
| Route | OMA1 OVR V6 GRI |
| Aircraft | BE58/L-SDFGRY/C |
Departure
| Time | 2026-05-09 00:34 |
|---|---|
| Airport | Eppley Airfield (KOMA) |
Arrival
| Time | 2026-05-09 01:23 |
|---|---|
| Airport | Central Nebraska Regional Airport (KGRI) |
| Time | Latitude | Longitude | Altitude | Speed | Heading |
|---|---|---|---|---|---|
| 2026-05-08 23:57 | 41.29578 | -95.89754 | 985 ft | 0 kts | 180° |
| 2026-05-09 00:05 | 41.29538 | -95.89727 | 982 ft | 12 kts | 134° |
| 2026-05-09 00:05 | 41.29535 | -95.89683 | 983 ft | 6 kts | 68° |
| 2026-05-09 00:05 | 41.29583 | -95.89609 | 982 ft | 15 kts | 16° |
| 2026-05-09 00:06 | 41.29684 | -95.89598 | 979 ft | 9 kts | 15° |
| 2026-05-09 00:06 | 41.29702 | -95.89523 | 980 ft | 15 kts | 93° |
| 2026-05-09 00:06 | 41.29698 | -95.89343 | 981 ft | 23 kts | 91° |
| 2026-05-09 00:06 | 41.29685 | -95.89181 | 979 ft | 9 kts | 138° |
| 2026-05-09 00:07 | 41.29605 | -95.89108 | 987 ft | 22 kts | 147° |
| 2026-05-09 00:07 | 41.29478 | -95.88981 | 979 ft | 26 kts | 140° |
| 2026-05-09 00:07 | 41.29394 | -95.88931 | 980 ft | 0 kts | 150° |
| 2026-05-09 00:22 | 41.29394 | -95.88930 | 980 ft | 1 kts | 150° |
| 2026-05-09 00:22 | 41.29340 | -95.88883 | 980 ft | 14 kts | 140° |
| 2026-05-09 00:22 | 41.29260 | -95.88768 | 982 ft | 17 kts | 141° |
| 2026-05-09 00:23 | 41.29234 | -95.88722 | 981 ft | 0 kts | 107° |
| 2026-05-09 00:31 | 41.29230 | -95.88691 | 977 ft | 0 kts | 81° |
| 2026-05-09 00:32 | 41.29237 | -95.88654 | 980 ft | 10 kts | 68° |
| 2026-05-09 00:32 | 41.29281 | -95.88610 | 978 ft | 8 kts | 332° |
| 2026-05-09 00:32 | 41.29316 | -95.88641 | 975 ft | 11 kts | 326° |
| 2026-05-09 00:32 | 41.29380 | -95.88702 | 975 ft | 7 kts | 323° |
| 2026-05-09 00:33 | 41.29509 | -95.88830 | 977 ft | 55 kts | 324° |
| 2026-05-09 00:33 | 41.29990 | -95.89295 | 979 ft | 111 kts | 324° |
| 2026-05-09 00:33 | 41.30682 | -95.89960 | 1086 ft | 132 kts | 324° |
| 2026-05-09 00:33 | 41.31495 | -95.90712 | 1185 ft | 146 kts | 324° |
| 2026-05-09 00:34 | 41.32310 | -95.91463 | 1531 ft | 140 kts | 324° |
| 2026-05-09 00:34 | 41.33097 | -95.92179 | 1887 ft | 134 kts | 327° |
| 2026-05-09 00:34 | 41.33970 | -95.92329 | 2255 ft | 128 kts | 23° |
| 2026-05-09 00:34 | 41.34670 | -95.91673 | 2618 ft | 120 kts | 59° |
| 2026-05-09 00:35 | 41.34927 | -95.90686 | 2983 ft | 110 kts | 94° |
| 2026-05-09 00:35 | 41.34749 | -95.89751 | 3344 ft | 101 kts | 126° |
| 2026-05-09 00:35 | 41.34277 | -95.89126 | 3698 ft | 93 kts | 152° |
| 2026-05-09 00:35 | 41.33754 | -95.88656 | 4045 ft | 88 kts | 148° |
| 2026-05-09 00:36 | 41.33254 | -95.88214 | 4312 ft | 90 kts | 149° |
| 2026-05-09 00:36 | 41.32724 | -95.87786 | 4554 ft | 88 kts | 172° |
| 2026-05-09 00:36 | 41.32143 | -95.87960 | 4774 ft | 89 kts | 203° |
| 2026-05-09 00:36 | 41.31614 | -95.88393 | 5022 ft | 89 kts | 208° |
| 2026-05-09 00:37 | 41.31083 | -95.88826 | 5251 ft | 90 kts | 211° |
| 2026-05-09 00:37 | 41.30543 | -95.89279 | 5400 ft | 99 kts | 211° |
| 2026-05-09 00:37 | 41.29909 | -95.89822 | 5429 ft | 118 kts | 211° |
| 2026-05-09 00:37 | 41.29175 | -95.90442 | 5440 ft | 132 kts | 211° |
| 2026-05-09 00:38 | 41.28362 | -95.91122 | 5408 ft | 143 kts | 211° |
| 2026-05-09 00:38 | 41.27499 | -95.91842 | 5401 ft | 149 kts | 211° |
| 2026-05-09 00:38 | 41.26621 | -95.92574 | 5400 ft | 153 kts | 211° |
| 2026-05-09 00:38 | 41.25714 | -95.93331 | 5397 ft | 155 kts | 211° |
| 2026-05-09 00:39 | 41.24799 | -95.94094 | 5399 ft | 156 kts | 211° |
| 2026-05-09 00:39 | 41.23882 | -95.94859 | 5399 ft | 156 kts | 211° |
| 2026-05-09 00:39 | 41.22961 | -95.95627 | 5399 ft | 156 kts | 211° |
| 2026-05-09 00:39 | 41.22037 | -95.96398 | 5399 ft | 157 kts | 211° |
| 2026-05-09 00:40 | 41.21115 | -95.97166 | 5401 ft | 157 kts | 211° |
| 2026-05-09 00:40 | 41.20190 | -95.97935 | 5400 ft | 157 kts | 211° |
| 2026-05-09 00:40 | 41.19277 | -95.98696 | 5395 ft | 157 kts | 211° |
| 2026-05-09 00:41 | 41.17425 | -96.00237 | 5399 ft | 157 kts | 211° |
| 2026-05-09 00:41 | 41.16500 | -96.01006 | 5394 ft | 157 kts | 211° |
| 2026-05-09 00:41 | 41.15614 | -96.01845 | 5403 ft | 158 kts | 225° |
| 2026-05-09 00:41 | 41.15031 | -96.03084 | 5400 ft | 160 kts | 248° |
| 2026-05-09 00:42 | 41.14845 | -96.04548 | 5396 ft | 162 kts | 264° |
| 2026-05-09 00:42 | 41.14755 | -96.06038 | 5399 ft | 162 kts | 262° |
| 2026-05-09 00:42 | 41.14658 | -96.07511 | 5399 ft | 163 kts | 263° |
| 2026-05-09 00:42 | 41.14563 | -96.09008 | 5400 ft | 163 kts | 263° |
| 2026-05-09 00:43 | 41.14470 | -96.10505 | 5399 ft | 163 kts | 263° |
| 2026-05-09 00:43 | 41.14376 | -96.12003 | 5399 ft | 163 kts | 263° |
| 2026-05-09 00:43 | 41.14281 | -96.13500 | 5400 ft | 163 kts | 263° |
| 2026-05-09 00:43 | 41.14187 | -96.15003 | 5392 ft | 163 kts | 263° |
| 2026-05-09 00:44 | 41.14092 | -96.16503 | 5399 ft | 163 kts | 263° |
| 2026-05-09 00:44 | 41.13996 | -96.18001 | 5399 ft | 163 kts | 263° |
| 2026-05-09 00:44 | 41.13901 | -96.19499 | 5396 ft | 163 kts | 263° |
| 2026-05-09 00:44 | 41.13807 | -96.20976 | 5396 ft | 162 kts | 263° |
| 2026-05-09 00:45 | 41.13711 | -96.22469 | 5394 ft | 163 kts | 263° |
| 2026-05-09 00:45 | 41.13616 | -96.23967 | 5396 ft | 163 kts | 263° |
| 2026-05-09 00:45 | 41.13519 | -96.25463 | 5397 ft | 163 kts | 263° |
| 2026-05-09 00:45 | 41.13423 | -96.26962 | 5395 ft | 162 kts | 263° |
| 2026-05-09 00:46 | 41.13327 | -96.28455 | 5396 ft | 163 kts | 263° |
| 2026-05-09 00:46 | 41.13230 | -96.29949 | 5396 ft | 163 kts | 263° |
| 2026-05-09 00:46 | 41.13134 | -96.31430 | 5396 ft | 163 kts | 263° |
| 2026-05-09 00:46 | 41.13037 | -96.32927 | 5396 ft | 163 kts | 263° |
| 2026-05-09 00:47 | 41.12940 | -96.34425 | 5396 ft | 163 kts | 263° |
| 2026-05-09 00:47 | 41.12842 | -96.35922 | 5396 ft | 163 kts | 263° |
| 2026-05-09 00:47 | 41.12745 | -96.37421 | 5397 ft | 163 kts | 263° |
| 2026-05-09 00:47 | 41.12646 | -96.38918 | 5393 ft | 163 kts | 263° |
| 2026-05-09 00:48 | 41.12549 | -96.40418 | 5397 ft | 163 kts | 263° |
| 2026-05-09 00:48 | 41.12450 | -96.41914 | 5397 ft | 163 kts | 263° |
| 2026-05-09 00:48 | 41.12351 | -96.43415 | 5397 ft | 163 kts | 263° |
| 2026-05-09 00:48 | 41.12254 | -96.44893 | 5396 ft | 163 kts | 262° |
| 2026-05-09 00:49 | 41.12155 | -96.46399 | 5336 ft | 167 kts | 263° |
| 2026-05-09 00:49 | 41.12054 | -96.47932 | 5314 ft | 166 kts | 263° |
| 2026-05-09 00:49 | 41.11953 | -96.49453 | 5314 ft | 165 kts | 262° |
| 2026-05-09 00:49 | 41.11853 | -96.50962 | 5314 ft | 164 kts | 262° |
| 2026-05-09 00:50 | 41.11752 | -96.52467 | 5310 ft | 164 kts | 262° |
| 2026-05-09 00:50 | 41.11651 | -96.53975 | 5312 ft | 164 kts | 262° |
| 2026-05-09 00:50 | 41.11551 | -96.55480 | 5311 ft | 164 kts | 262° |
| 2026-05-09 00:50 | 41.11450 | -96.56983 | 5310 ft | 164 kts | 262° |
| 2026-05-09 00:51 | 41.11350 | -96.58469 | 5307 ft | 164 kts | 262° |
| 2026-05-09 00:51 | 41.11249 | -96.59969 | 5308 ft | 163 kts | 262° |
| 2026-05-09 00:51 | 41.11148 | -96.61472 | 5310 ft | 164 kts | 262° |
| 2026-05-09 00:51 | 41.11047 | -96.62973 | 5307 ft | 164 kts | 263° |
| 2026-05-09 00:52 | 41.10945 | -96.64477 | 5309 ft | 163 kts | 262° |
| 2026-05-09 00:52 | 41.10843 | -96.65978 | 5308 ft | 163 kts | 262° |
| 2026-05-09 00:52 | 41.10740 | -96.67477 | 5308 ft | 163 kts | 262° |
| 2026-05-09 00:52 | 41.10639 | -96.68973 | 5307 ft | 163 kts | 262° |
| 2026-05-09 00:53 | 41.10538 | -96.70456 | 5308 ft | 164 kts | 262° |
| 2026-05-09 00:53 | 41.10435 | -96.71958 | 5309 ft | 164 kts | 262° |
| 2026-05-09 00:53 | 41.10333 | -96.73460 | 5309 ft | 164 kts | 262° |
| 2026-05-09 00:53 | 41.10229 | -96.74962 | 5309 ft | 164 kts | 262° |
| 2026-05-09 00:54 | 41.10126 | -96.76466 | 5309 ft | 164 kts | 262° |
| 2026-05-09 00:54 | 41.10022 | -96.77969 | 5309 ft | 164 kts | 262° |
| 2026-05-09 00:54 | 41.09919 | -96.79470 | 5309 ft | 164 kts | 262° |
| 2026-05-09 00:54 | 41.09815 | -96.80976 | 5309 ft | 164 kts | 262° |
| 2026-05-09 00:55 | 41.09711 | -96.82482 | 5309 ft | 164 kts | 262° |
| 2026-05-09 00:55 | 41.09607 | -96.83986 | 5309 ft | 164 kts | 262° |
| 2026-05-09 00:55 | 41.09503 | -96.85471 | 5308 ft | 164 kts | 262° |
| 2026-05-09 00:55 | 41.09399 | -96.86972 | 5309 ft | 164 kts | 262° |
| 2026-05-09 00:56 | 41.09294 | -96.88477 | 5309 ft | 164 kts | 262° |
| 2026-05-09 00:56 | 41.09190 | -96.89981 | 5304 ft | 163 kts | 262° |
| 2026-05-09 00:56 | 41.09085 | -96.91478 | 5307 ft | 163 kts | 262° |
| 2026-05-09 00:56 | 41.08980 | -96.92975 | 5308 ft | 163 kts | 262° |
| 2026-05-09 00:57 | 41.08876 | -96.94472 | 5306 ft | 163 kts | 262° |
| 2026-05-09 00:57 | 41.08773 | -96.95948 | 5303 ft | 163 kts | 262° |
| 2026-05-09 00:57 | 41.08670 | -96.97443 | 5307 ft | 163 kts | 262° |
| 2026-05-09 00:57 | 41.08566 | -96.98946 | 5307 ft | 164 kts | 262° |
| 2026-05-09 00:58 | 41.08461 | -97.00451 | 5308 ft | 164 kts | 262° |
| 2026-05-09 00:58 | 41.08356 | -97.01949 | 5307 ft | 164 kts | 262° |
| 2026-05-09 00:58 | 41.08251 | -97.03450 | 5307 ft | 163 kts | 262° |
| 2026-05-09 00:58 | 41.08146 | -97.04950 | 5308 ft | 163 kts | 262° |
| 2026-05-09 00:59 | 41.08040 | -97.06449 | 5305 ft | 164 kts | 262° |
| 2026-05-09 00:59 | 41.07934 | -97.07952 | 5308 ft | 164 kts | 262° |
| 2026-05-09 00:59 | 41.07829 | -97.09457 | 5308 ft | 164 kts | 262° |
| 2026-05-09 00:59 | 41.07722 | -97.10961 | 5304 ft | 164 kts | 262° |
| 2026-05-09 01:00 | 41.07617 | -97.12442 | 5308 ft | 164 kts | 262° |
| 2026-05-09 01:00 | 41.07511 | -97.13945 | 5307 ft | 164 kts | 262° |
| 2026-05-09 01:00 | 41.07404 | -97.15444 | 5306 ft | 163 kts | 262° |
| 2026-05-09 01:00 | 41.07297 | -97.16941 | 5307 ft | 163 kts | 262° |
| 2026-05-09 01:01 | 41.07191 | -97.18437 | 5305 ft | 163 kts | 262° |
| 2026-05-09 01:01 | 41.07084 | -97.19928 | 5304 ft | 163 kts | 262° |
| 2026-05-09 01:01 | 41.06977 | -97.21423 | 5305 ft | 163 kts | 262° |
| 2026-05-09 01:01 | 41.06870 | -97.22918 | 5304 ft | 163 kts | 262° |
| 2026-05-09 01:02 | 41.06764 | -97.24396 | 5304 ft | 163 kts | 262° |
| 2026-05-09 01:02 | 41.06656 | -97.25889 | 5304 ft | 163 kts | 262° |
| 2026-05-09 01:02 | 41.06548 | -97.27391 | 5306 ft | 164 kts | 262° |
| 2026-05-09 01:02 | 41.06439 | -97.28891 | 5307 ft | 164 kts | 262° |
| 2026-05-09 01:03 | 41.06331 | -97.30393 | 5306 ft | 164 kts | 262° |
| 2026-05-09 01:03 | 41.06222 | -97.31896 | 5307 ft | 164 kts | 262° |
| 2026-05-09 01:03 | 41.06112 | -97.33402 | 5306 ft | 164 kts | 262° |
| 2026-05-09 01:03 | 41.06003 | -97.34900 | 5307 ft | 164 kts | 262° |
| 2026-05-09 01:04 | 41.05895 | -97.36401 | 5303 ft | 164 kts | 262° |
| 2026-05-09 01:04 | 41.05786 | -97.37883 | 5306 ft | 164 kts | 262° |
| 2026-05-09 01:04 | 41.05676 | -97.39381 | 5306 ft | 164 kts | 262° |
| 2026-05-09 01:04 | 41.05566 | -97.40881 | 5305 ft | 163 kts | 262° |
| 2026-05-09 01:05 | 41.05456 | -97.42379 | 5305 ft | 163 kts | 262° |
| 2026-05-09 01:05 | 41.05346 | -97.43877 | 5306 ft | 163 kts | 262° |
| 2026-05-09 01:05 | 41.05124 | -97.46877 | 5305 ft | 164 kts | 262° |
| 2026-05-09 01:06 | 41.05014 | -97.48376 | 5305 ft | 164 kts | 262° |
| 2026-05-09 01:06 | 41.04903 | -97.49877 | 5305 ft | 164 kts | 262° |
| 2026-05-09 01:06 | 41.04793 | -97.51357 | 5305 ft | 164 kts | 262° |
| 2026-05-09 01:06 | 41.04681 | -97.52857 | 5305 ft | 164 kts | 262° |
| 2026-05-09 01:07 | 41.04568 | -97.54355 | 5304 ft | 163 kts | 262° |
| 2026-05-09 01:07 | 41.04451 | -97.55853 | 5304 ft | 163 kts | 262° |
| 2026-05-09 01:07 | 41.04334 | -97.57348 | 5304 ft | 163 kts | 262° |
| 2026-05-09 01:07 | 41.04218 | -97.58845 | 5303 ft | 163 kts | 262° |
| 2026-05-09 01:08 | 41.04101 | -97.60338 | 5303 ft | 163 kts | 262° |
| 2026-05-09 01:08 | 41.03985 | -97.61830 | 5303 ft | 163 kts | 262° |
| 2026-05-09 01:08 | 41.03867 | -97.63324 | 5304 ft | 163 kts | 262° |
| 2026-05-09 01:08 | 41.03751 | -97.64821 | 5304 ft | 164 kts | 262° |
| 2026-05-09 01:09 | 41.03634 | -97.66322 | 5301 ft | 164 kts | 262° |
| 2026-05-09 01:09 | 41.03517 | -97.67801 | 5304 ft | 164 kts | 262° |
| 2026-05-09 01:09 | 41.03399 | -97.69299 | 5305 ft | 164 kts | 262° |
| 2026-05-09 01:09 | 41.03281 | -97.70800 | 5305 ft | 164 kts | 262° |
| 2026-05-09 01:10 | 41.03163 | -97.72301 | 5304 ft | 164 kts | 262° |
| 2026-05-09 01:10 | 41.03044 | -97.73799 | 5302 ft | 164 kts | 262° |
| 2026-05-09 01:10 | 41.02926 | -97.75299 | 5305 ft | 164 kts | 262° |
| 2026-05-09 01:10 | 41.02807 | -97.76798 | 5305 ft | 164 kts | 262° |
| 2026-05-09 01:11 | 41.02687 | -97.78298 | 5303 ft | 164 kts | 262° |
| 2026-05-09 01:11 | 41.02568 | -97.79797 | 5303 ft | 163 kts | 261° |
| 2026-05-09 01:11 | 41.02450 | -97.81273 | 5303 ft | 163 kts | 261° |
| 2026-05-09 01:11 | 41.02331 | -97.82764 | 5302 ft | 163 kts | 262° |
| 2026-05-09 01:12 | 41.02212 | -97.84260 | 5302 ft | 163 kts | 262° |
| 2026-05-09 01:12 | 41.02092 | -97.85754 | 5302 ft | 163 kts | 262° |
| 2026-05-09 01:12 | 41.01972 | -97.87249 | 5302 ft | 163 kts | 262° |
| 2026-05-09 01:12 | 41.01852 | -97.88745 | 5302 ft | 164 kts | 261° |
| 2026-05-09 01:13 | 41.01731 | -97.90240 | 5302 ft | 163 kts | 262° |
| 2026-05-09 01:13 | 41.01612 | -97.91737 | 5303 ft | 164 kts | 262° |
| 2026-05-09 01:13 | 41.01494 | -97.93235 | 5303 ft | 164 kts | 262° |
| 2026-05-09 01:13 | 41.01377 | -97.94716 | 5302 ft | 163 kts | 262° |
| 2026-05-09 01:14 | 41.01259 | -97.96210 | 5302 ft | 163 kts | 262° |
| 2026-05-09 01:14 | 41.01140 | -97.97706 | 5302 ft | 163 kts | 262° |
| 2026-05-09 01:14 | 41.01023 | -97.99203 | 5303 ft | 163 kts | 262° |
| 2026-05-09 01:14 | 41.00818 | -98.00668 | 5296 ft | 160 kts | 240° |
| 2026-05-09 01:15 | 41.00163 | -98.01839 | 5298 ft | 158 kts | 229° |
| 2026-05-09 01:15 | 40.99471 | -98.02958 | 5258 ft | 154 kts | 229° |
| 2026-05-09 01:15 | 40.98782 | -98.04076 | 4969 ft | 158 kts | 229° |
| 2026-05-09 01:15 | 40.98088 | -98.05196 | 4764 ft | 157 kts | 229° |
| 2026-05-09 01:16 | 40.97407 | -98.06296 | 4559 ft | 156 kts | 229° |
| 2026-05-09 01:16 | 40.96719 | -98.07409 | 4365 ft | 156 kts | 229° |
| 2026-05-09 01:16 | 40.96034 | -98.08519 | 4174 ft | 156 kts | 229° |
| 2026-05-09 01:17 | 40.94667 | -98.10730 | 3812 ft | 154 kts | 229° |
| 2026-05-09 01:17 | 40.94013 | -98.11791 | 3799 ft | 145 kts | 229° |
| 2026-05-09 01:17 | 40.93392 | -98.12799 | 3793 ft | 139 kts | 229° |
| 2026-05-09 01:17 | 40.92792 | -98.13775 | 3796 ft | 135 kts | 229° |
| 2026-05-09 01:18 | 40.92208 | -98.14726 | 3798 ft | 132 kts | 229° |
| 2026-05-09 01:18 | 40.91643 | -98.15653 | 3795 ft | 131 kts | 229° |
| 2026-05-09 01:18 | 40.91075 | -98.16583 | 3798 ft | 130 kts | 229° |
| 2026-05-09 01:18 | 40.90507 | -98.17512 | 3797 ft | 129 kts | 229° |
| 2026-05-09 01:19 | 40.89945 | -98.18434 | 3798 ft | 128 kts | 229° |
| 2026-05-09 01:19 | 40.89384 | -98.19354 | 3796 ft | 129 kts | 229° |
| 2026-05-09 01:19 | 40.88831 | -98.20283 | 3797 ft | 129 kts | 237° |
| 2026-05-09 01:19 | 40.88724 | -98.21446 | 3808 ft | 131 kts | 275° |
| 2026-05-09 01:20 | 40.88836 | -98.22672 | 3816 ft | 138 kts | 273° |
| 2026-05-09 01:20 | 40.88948 | -98.23951 | 3818 ft | 142 kts | 274° |
| 2026-05-09 01:20 | 40.89062 | -98.25247 | 3800 ft | 143 kts | 274° |
| 2026-05-09 01:20 | 40.89179 | -98.26547 | 3803 ft | 142 kts | 274° |
| 2026-05-09 01:21 | 40.89296 | -98.27834 | 3726 ft | 140 kts | 274° |
| 2026-05-09 01:21 | 40.89577 | -98.29071 | 3497 ft | 146 kts | 309° |
| 2026-05-09 01:21 | 40.90394 | -98.29859 | 3284 ft | 143 kts | 327° |
| 2026-05-09 01:21 | 40.91244 | -98.30555 | 2812 ft | 145 kts | 327° |
| 2026-05-09 01:22 | 40.92098 | -98.31257 | 2386 ft | 143 kts | 327° |
| 2026-05-09 01:22 | 40.93033 | -98.31594 | 1994 ft | 139 kts | 4° |
| 2026-05-09 01:22 | 40.93917 | -98.31519 | 1900 ft | 125 kts | 3° |
| 2026-05-09 01:22 | 40.94773 | -98.31501 | 1890 ft | 122 kts | 359° |
| 2026-05-09 01:23 | 40.95615 | -98.31508 | 1871 ft | 120 kts | 0° |
| 2026-05-09 01:23 | 40.96363 | -98.31499 | 1845 ft | 86 kts | 3° |
| 2026-05-09 01:23 | 40.96886 | -98.31486 | 1845 ft | 52 kts | 0° |
| 2026-05-09 01:23 | 40.96983 | -98.31526 | 1844 ft | 8 kts | 265° |
| 2026-05-09 01:24 | 40.96989 | -98.31681 | 1845 ft | 20 kts | 305° |
| 2026-05-09 01:24 | 40.97117 | -98.31740 | 1844 ft | 21 kts | 1° |
| 2026-05-09 01:24 | 40.97172 | -98.31789 | 1844 ft | 8 kts | 214° |
| 2026-05-09 01:24 | 40.97155 | -98.31783 | 1844 ft | 0 kts | 106° |